createdAt,value
2018-09-20T00:01:43.231Z,9.77
2018-09-20T00:04:11.286Z,10.10
2018-09-20T00:06:40.068Z,9.67
2018-09-20T00:09:08.392Z,9.77
2018-09-20T00:11:36.675Z,10.20
2018-09-20T00:14:04.920Z,9.43
2018-09-20T00:16:33.068Z,10.43
2018-09-20T00:19:01.217Z,10.37
2018-09-20T00:21:29.449Z,10.10
2018-09-20T00:23:57.771Z,10.13
2018-09-20T00:26:26.013Z,10.80
2018-09-20T00:28:54.125Z,10.43
2018-09-20T00:31:22.722Z,10.07
2018-09-20T00:33:50.826Z,10.47
2018-09-20T00:36:19.020Z,11.00
2018-09-20T00:38:47.217Z,11.10
2018-09-20T00:41:15.391Z,11.33
2018-09-20T00:43:43.626Z,10.80
2018-09-20T00:46:11.754Z,10.67
2018-09-20T00:48:39.873Z,10.30
2018-09-20T00:51:08.070Z,12.53
2018-09-20T00:53:36.138Z,12.53
2018-09-20T00:56:04.547Z,11.57
2018-09-20T00:58:32.739Z,12.73
2018-09-20T01:01:00.902Z,12.00
2018-09-20T01:03:29.033Z,11.80
2018-09-20T01:05:57.123Z,11.63
2018-09-20T01:08:25.352Z,12.07
2018-09-20T01:10:53.742Z,12.20
2018-09-20T01:13:22.438Z,11.60
2018-09-20T01:15:51.052Z,11.67
2018-09-20T01:18:19.328Z,11.47
2018-09-20T01:20:47.804Z,12.50
2018-09-20T01:25:49.835Z,10.73
2018-09-20T01:28:18.006Z,11.10
2018-09-20T01:30:46.369Z,10.90
2018-09-20T01:33:14.525Z,10.70
2018-09-20T01:35:42.732Z,10.30
2018-09-20T01:38:10.864Z,11.10
2018-09-20T01:40:39.038Z,11.30
2018-09-20T01:43:07.233Z,11.10
2018-09-20T01:45:35.419Z,10.50
2018-09-20T01:48:03.655Z,10.67
2018-09-20T01:50:31.927Z,10.70
2018-09-20T01:53:00.191Z,9.83
2018-09-20T01:55:28.470Z,10.50
2018-09-20T01:57:56.751Z,10.60
2018-09-20T02:00:25.039Z,10.87
2018-09-20T02:02:53.296Z,10.40
2018-09-20T02:05:21.801Z,11.00
2018-09-20T02:07:50.124Z,11.00
2018-09-20T02:10:18.630Z,10.80
2018-09-20T02:12:47.231Z,10.60
2018-09-20T02:15:15.553Z,11.47
2018-09-20T02:17:43.696Z,11.13
2018-09-20T02:20:11.978Z,11.00
2018-09-20T02:22:40.473Z,11.70
2018-09-20T02:25:08.869Z,11.77
2018-09-20T02:27:37.020Z,11.30
2018-09-20T02:30:05.558Z,11.23
2018-09-20T02:32:33.716Z,11.37
2018-09-20T02:35:02.271Z,11.23
2018-09-20T02:37:30.931Z,11.53
2018-09-20T02:39:59.080Z,11.27
2018-09-20T02:42:27.195Z,10.97
2018-09-20T02:44:55.288Z,11.00
2018-09-20T02:47:23.527Z,11.00
2018-09-20T02:49:51.991Z,11.87
2018-09-20T02:52:20.155Z,11.20
2018-09-20T02:54:48.771Z,12.93
2018-09-20T02:57:16.976Z,13.97
2018-09-20T02:59:45.191Z,14.33
2018-09-20T03:02:13.663Z,13.00
2018-09-20T03:04:41.980Z,11.53
2018-09-20T03:07:10.408Z,12.00
2018-09-20T03:09:38.700Z,12.90
2018-09-20T03:12:06.972Z,15.10
2018-09-20T03:14:35.226Z,15.03
2018-09-20T03:17:03.446Z,15.90
2018-09-20T03:19:31.798Z,15.83
2018-09-20T03:22:00.046Z,15.30
2018-09-20T03:24:28.209Z,15.00
2018-09-20T03:26:56.360Z,14.57
2018-09-20T03:29:24.653Z,15.23
2018-09-20T03:31:53.225Z,13.97
2018-09-20T03:34:21.246Z,13.50
2018-09-20T03:36:49.337Z,14.17
2018-09-20T03:39:17.758Z,12.40
2018-09-20T03:41:46.367Z,13.30
2018-09-20T03:44:14.846Z,13.40
2018-09-20T03:46:42.976Z,13.30
2018-09-20T03:49:11.284Z,13.00
2018-09-20T03:51:39.436Z,12.53
2018-09-20T03:54:07.523Z,13.87
2018-09-20T03:56:36.029Z,13.00
2018-09-20T03:59:04.235Z,13.93
2018-09-20T04:01:32.336Z,13.07
2018-09-20T04:04:00.476Z,12.67
2018-09-20T04:06:28.648Z,12.93
2018-09-20T04:08:56.827Z,12.23
2018-09-20T04:11:24.960Z,12.17
2018-09-20T04:13:53.388Z,12.13
2018-09-20T04:16:21.660Z,13.07
2018-09-20T04:18:49.878Z,12.47
2018-09-20T04:21:23.000Z,12.30
2018-09-20T04:23:51.300Z,12.13
2018-09-20T04:26:19.381Z,11.30
2018-09-20T04:28:47.481Z,12.57
2018-09-20T04:31:15.769Z,13.67
2018-09-20T04:33:44.007Z,11.93
2018-09-20T04:36:13.120Z,11.97
2018-09-20T04:38:41.272Z,12.40
2018-09-20T04:41:09.647Z,12.50
2018-09-20T04:43:37.809Z,12.17
2018-09-20T04:46:06.175Z,12.90
2018-09-20T04:48:34.514Z,13.07
2018-09-20T04:51:02.744Z,12.50
2018-09-20T04:53:31.186Z,12.93
2018-09-20T04:55:59.591Z,11.77
2018-09-20T04:58:28.171Z,12.40
2018-09-20T05:00:56.632Z,13.30
2018-09-20T05:03:24.938Z,12.97
2018-09-20T05:05:53.117Z,13.20
2018-09-20T05:08:21.440Z,14.40
2018-09-20T05:10:49.573Z,12.90
2018-09-20T05:13:17.741Z,13.30
2018-09-20T05:15:45.916Z,14.10
2018-09-20T05:18:14.057Z,14.43
2018-09-20T05:20:42.205Z,13.40
2018-09-20T05:23:10.665Z,13.13
2018-09-20T05:25:39.147Z,11.97
2018-09-20T05:28:07.610Z,12.10
2018-09-20T05:30:35.992Z,11.90
2018-09-20T05:33:04.178Z,12.13
2018-09-20T05:35:32.702Z,11.67
2018-09-20T05:38:00.778Z,12.20
2018-09-20T05:40:29.044Z,10.80
2018-09-20T05:42:57.334Z,11.13
2018-09-20T05:45:25.575Z,11.63
2018-09-20T05:47:53.715Z,11.77
2018-09-20T05:50:22.514Z,11.90
2018-09-20T05:52:50.695Z,11.30
2018-09-20T05:55:19.274Z,11.53
2018-09-20T05:57:47.413Z,9.90
2018-09-20T06:00:15.634Z,10.67
2018-09-20T06:02:43.899Z,9.90
2018-09-20T06:05:12.229Z,10.10
2018-09-20T06:07:40.588Z,10.27
2018-09-20T06:10:08.997Z,10.27
2018-09-20T06:12:37.226Z,9.67
2018-09-20T06:15:05.892Z,9.43
2018-09-20T06:17:34.451Z,9.63
2018-09-20T06:20:03.025Z,11.00
2018-09-20T06:22:31.663Z,10.17
2018-09-20T06:24:59.901Z,10.40
2018-09-20T06:27:28.298Z,10.47
2018-09-20T06:29:56.479Z,10.13
2018-09-20T06:32:24.985Z,10.73
2018-09-20T06:34:53.320Z,10.33
2018-09-20T06:37:21.829Z,10.47
2018-09-20T06:39:49.953Z,9.93
2018-09-20T06:42:18.142Z,9.03
2018-09-20T06:44:46.573Z,9.50
2018-09-20T06:47:14.722Z,10.10
2018-09-20T06:49:43.180Z,9.07
2018-09-20T06:52:11.555Z,9.47
2018-09-20T06:54:40.007Z,9.40
2018-09-20T06:57:08.200Z,9.67
2018-09-20T06:59:36.667Z,9.13
2018-09-20T07:02:04.979Z,8.97
2018-09-20T07:04:33.119Z,9.20
2018-09-20T07:07:01.661Z,9.67
2018-09-20T07:09:29.804Z,9.70
2018-09-20T07:11:58.112Z,9.13
2018-09-20T07:14:26.269Z,9.97
2018-09-20T07:16:54.458Z,9.17
2018-09-20T07:19:22.875Z,10.17
2018-09-20T07:21:51.012Z,10.30
2018-09-20T07:24:19.536Z,9.03
2018-09-20T07:26:47.685Z,9.70
2018-09-20T07:29:15.781Z,8.80
2018-09-20T07:31:44.153Z,10.20
2018-09-20T07:34:12.445Z,10.20
2018-09-20T07:36:40.650Z,9.20
2018-09-20T07:39:09.634Z,10.10
2018-09-20T07:41:38.535Z,10.40
2018-09-20T07:44:06.895Z,9.87
2018-09-20T07:46:35.082Z,10.30
2018-09-20T07:49:03.600Z,10.30
2018-09-20T07:51:31.922Z,9.73
2018-09-20T07:54:00.367Z,10.17
2018-09-20T07:56:28.500Z,9.63
2018-09-20T07:58:56.734Z,10.77
2018-09-20T08:01:25.221Z,10.47
2018-09-20T08:03:53.628Z,9.87
2018-09-20T08:06:21.947Z,9.60
2018-09-20T08:08:50.139Z,9.47
2018-09-20T08:11:18.347Z,9.30
2018-09-20T08:13:47.251Z,8.93
2018-09-20T08:16:15.391Z,8.07
2018-09-20T08:18:44.256Z,7.93
2018-09-20T08:21:12.552Z,9.20
2018-09-20T08:23:40.787Z,8.93
2018-09-20T08:26:09.088Z,8.30
2018-09-20T08:28:37.237Z,8.37
2018-09-20T08:31:05.802Z,8.20
2018-09-20T08:33:34.084Z,7.70
2018-09-20T08:36:02.262Z,7.70
2018-09-20T08:38:30.548Z,7.45
2018-09-20T08:40:58.700Z,7.75
2018-09-20T08:43:26.998Z,8.08
2018-09-20T08:45:55.409Z,7.67
2018-09-20T08:48:23.549Z,7.65
2018-09-20T08:50:51.686Z,7.83
2018-09-20T08:53:19.917Z,7.72
2018-09-20T08:55:48.190Z,7.00
2018-09-20T08:58:16.446Z,7.25
2018-09-20T09:00:44.583Z,7.05
2018-09-20T09:03:12.718Z,6.58
2018-09-20T09:05:40.848Z,7.17
2018-09-20T09:08:09.286Z,6.28
2018-09-20T09:10:37.378Z,6.53
2018-09-20T09:13:05.772Z,6.80
2018-09-20T09:15:33.908Z,6.45
2018-09-20T09:18:02.220Z,6.17
2018-09-20T09:20:30.510Z,6.60
2018-09-20T09:22:58.919Z,6.10
2018-09-20T09:25:27.127Z,6.62
2018-09-20T09:27:55.607Z,6.42
2018-09-20T09:30:23.739Z,6.08
2018-09-20T09:32:51.898Z,8.13
2018-09-20T09:35:20.048Z,6.37
2018-09-20T09:37:48.195Z,6.17
2018-09-20T09:40:16.725Z,6.33
2018-09-20T09:42:44.961Z,6.25
2018-09-20T09:45:13.080Z,6.33
2018-09-20T09:47:41.430Z,6.10
2018-09-20T09:50:09.705Z,6.60
2018-09-20T09:52:37.984Z,5.78
2018-09-20T09:55:06.462Z,6.55
2018-09-20T09:57:34.529Z,6.58
2018-09-20T10:00:03.165Z,6.35
2018-09-20T10:02:31.696Z,6.60
2018-09-20T10:04:59.874Z,6.87
2018-09-20T10:07:28.239Z,6.30
2018-09-20T10:09:56.637Z,5.95
2018-09-20T10:12:24.858Z,6.20
2018-09-20T10:14:53.014Z,6.40
2018-09-20T10:17:21.259Z,6.20
2018-09-20T10:19:49.557Z,6.45
2018-09-20T10:22:17.891Z,5.97
2018-09-20T10:24:46.099Z,6.03
2018-09-20T10:27:14.496Z,5.87
2018-09-20T10:29:42.647Z,5.90
2018-09-20T10:32:10.842Z,6.00
2018-09-20T10:34:39.027Z,5.72
2018-09-20T10:37:07.352Z,6.00
2018-09-20T10:39:35.681Z,6.28
2018-09-20T10:42:03.940Z,6.40
2018-09-20T10:44:32.096Z,5.90
2018-09-20T10:47:00.528Z,6.60
2018-09-20T10:49:28.934Z,6.00
2018-09-20T10:51:57.161Z,5.85
2018-09-20T10:54:25.681Z,5.85
2018-09-20T10:56:53.913Z,6.37
2018-09-20T10:59:22.173Z,6.55
2018-09-20T11:01:50.628Z,6.12
2018-09-20T11:04:18.847Z,6.40
2018-09-20T11:06:47.057Z,6.78
2018-09-20T11:09:15.296Z,7.12
2018-09-20T11:11:43.381Z,6.73
2018-09-20T11:14:11.518Z,6.63
2018-09-20T11:16:39.828Z,7.20
2018-09-20T11:19:08.254Z,7.20
2018-09-20T11:21:36.519Z,7.67
2018-09-20T11:24:04.707Z,7.10
2018-09-20T11:26:32.819Z,7.10
2018-09-20T11:29:00.946Z,7.00
2018-09-20T11:31:29.202Z,7.13
2018-09-20T11:33:57.639Z,7.07
2018-09-20T11:36:25.879Z,7.47
2018-09-20T11:38:54.200Z,7.27
2018-09-20T11:41:22.743Z,7.83
2018-09-20T11:43:51.022Z,7.90
2018-09-20T11:46:20.281Z,7.13
2018-09-20T11:48:48.992Z,7.20
2018-09-20T11:51:17.139Z,7.33
2018-09-20T11:53:45.498Z,6.60
2018-09-20T11:56:13.916Z,7.47
2018-09-20T11:58:42.389Z,6.67
2018-09-20T12:01:10.554Z,6.63
2018-09-20T12:03:38.813Z,6.87
2018-09-20T12:06:06.894Z,6.73
2018-09-20T12:08:34.989Z,6.70
2018-09-20T12:11:03.517Z,6.47
2018-09-20T12:13:31.889Z,6.93
2018-09-20T12:16:00.245Z,6.67
2018-09-20T12:18:28.521Z,6.50
2018-09-20T12:20:56.745Z,7.07
2018-09-20T12:23:25.005Z,6.63
2018-09-20T12:25:53.283Z,6.60
2018-09-20T12:28:21.766Z,6.60
2018-09-20T12:30:50.034Z,6.70
2018-09-20T12:33:18.288Z,6.73
2018-09-20T12:35:46.496Z,6.10
2018-09-20T12:38:14.779Z,6.53
2018-09-20T12:40:43.059Z,6.13
2018-09-20T12:43:11.345Z,6.10
2018-09-20T12:45:39.479Z,6.43
2018-09-20T12:48:08.180Z,6.17
2018-09-20T12:50:36.676Z,5.93
2018-09-20T12:53:05.183Z,6.03
2018-09-20T12:55:33.492Z,5.80
2018-09-20T12:58:01.775Z,6.30
2018-09-20T13:00:30.028Z,6.23
2018-09-20T13:02:58.436Z,6.20
2018-09-20T13:05:26.808Z,6.60
2018-09-20T13:07:55.044Z,6.30
2018-09-20T13:10:23.258Z,6.20
2018-09-20T13:12:51.459Z,5.57
2018-09-20T13:15:19.669Z,6.37
2018-09-20T13:17:48.040Z,6.50
2018-09-20T13:20:16.248Z,6.40
2018-09-20T13:22:44.346Z,5.97
2018-09-20T13:25:12.955Z,6.00
2018-09-20T13:27:41.375Z,5.67
2018-09-20T13:30:09.905Z,5.53
2018-09-20T13:32:38.458Z,5.97
2018-09-20T13:35:06.698Z,6.00
2018-09-20T13:37:35.354Z,6.00
2018-09-20T13:40:03.818Z,5.60
2018-09-20T13:42:32.038Z,6.00
2018-09-20T13:45:00.240Z,5.80
2018-09-20T13:47:28.341Z,5.90
2018-09-20T13:49:56.549Z,5.87
2018-09-20T13:52:24.738Z,5.90
2018-09-20T13:54:52.986Z,5.60
2018-09-20T13:57:21.198Z,6.03
2018-09-20T14:00:15.882Z,5.70
2018-09-20T14:03:12.697Z,5.40
2018-09-20T14:05:42.531Z,5.40
2018-09-20T14:08:10.758Z,5.70
2018-09-20T14:10:39.053Z,5.47
2018-09-20T14:13:07.358Z,5.50
2018-09-20T14:15:35.730Z,5.63
2018-09-20T14:18:04.383Z,5.30
2018-09-20T14:20:32.855Z,6.23
2018-09-20T14:23:00.967Z,6.37
2018-09-20T14:25:29.231Z,6.47
2018-09-20T14:27:57.521Z,5.33
2018-09-20T14:30:25.762Z,6.13
2018-09-20T14:32:53.964Z,5.47
2018-09-20T14:35:22.435Z,5.40
2018-09-20T14:37:50.590Z,5.57
2018-09-20T14:40:19.477Z,5.27
2018-09-20T14:42:47.879Z,5.47
2018-09-20T14:45:16.002Z,4.83
2018-09-20T14:47:44.108Z,5.13
2018-09-20T14:50:12.426Z,5.03
2018-09-20T14:52:40.825Z,5.13
2018-09-20T14:55:08.923Z,5.10
2018-09-20T14:57:37.110Z,5.00
2018-09-20T15:00:05.310Z,4.47
2018-09-20T15:02:33.807Z,4.43
2018-09-20T15:05:01.959Z,4.63
2018-09-20T15:07:30.090Z,4.93
2018-09-20T15:09:58.190Z,4.50
2018-09-20T15:12:26.354Z,4.73
2018-09-20T15:14:54.671Z,4.20
2018-09-20T15:17:23.061Z,4.07
2018-09-20T15:19:51.455Z,4.20
2018-09-20T15:22:19.683Z,5.00
2018-09-20T15:24:47.987Z,5.30
2018-09-20T15:27:16.283Z,7.50
2018-09-20T15:29:44.901Z,6.10
2018-09-20T15:32:13.153Z,5.43
2018-09-20T15:34:41.452Z,5.93
2018-09-20T15:37:09.809Z,5.03
2018-09-20T15:39:38.353Z,5.60
2018-09-20T15:42:06.557Z,4.50
2018-09-20T15:44:34.970Z,5.03
2018-09-20T15:47:03.405Z,4.30
2018-09-20T15:49:32.089Z,4.80
2018-09-20T15:52:00.857Z,4.93
2018-09-20T15:54:29.118Z,4.57
2018-09-20T15:56:57.286Z,4.63
2018-09-20T15:59:26.943Z,4.50
2018-09-20T16:01:55.066Z,4.27
2018-09-20T16:04:23.326Z,5.97
2018-09-20T16:06:52.055Z,4.80
2018-09-20T16:09:20.214Z,4.87
2018-09-20T16:11:48.487Z,5.43
2018-09-20T16:14:16.743Z,5.13
2018-09-20T16:16:45.179Z,4.70
2018-09-20T16:19:13.387Z,5.27
2018-09-20T16:21:42.417Z,5.37
2018-09-20T16:24:11.251Z,5.00
2018-09-20T16:26:40.375Z,5.83
2018-09-20T16:29:24.115Z,5.40
2018-09-20T16:32:29.381Z,5.20
2018-09-20T16:35:49.368Z,5.30
2018-09-20T16:38:58.453Z,5.00
2018-09-20T16:41:31.730Z,5.27
2018-09-20T16:44:00.617Z,5.17
2018-09-20T16:46:29.325Z,5.47
2018-09-20T16:48:59.774Z,4.80
2018-09-20T16:51:28.730Z,5.27
2018-09-20T16:53:58.327Z,4.70
2018-09-20T16:56:28.388Z,4.80
2018-09-20T16:58:58.473Z,4.20
2018-09-20T17:01:27.369Z,4.70
2018-09-20T17:03:57.280Z,4.60
2018-09-20T17:06:26.849Z,4.50
2018-09-20T17:08:56.548Z,4.53
2018-09-20T17:11:25.794Z,4.67
2018-09-20T17:13:54.600Z,5.07
2018-09-20T17:16:42.159Z,4.53
2018-09-20T17:19:10.773Z,4.90
2018-09-20T17:21:42.191Z,4.53
2018-09-20T17:24:11.296Z,15.00
2018-09-20T17:26:39.624Z,6.47
2018-09-20T17:29:08.689Z,7.37
2018-09-20T17:31:37.837Z,5.50
2018-09-20T17:34:06.556Z,5.03
2018-09-20T17:36:35.500Z,5.27
2018-09-20T17:39:07.233Z,5.67
2018-09-20T17:41:37.715Z,5.97
2018-09-20T17:44:07.249Z,6.60
2018-09-20T17:46:36.140Z,6.20
2018-09-20T17:49:05.120Z,6.13
2018-09-20T17:51:34.602Z,7.60
2018-09-20T17:54:03.300Z,9.40
2018-09-20T17:56:32.301Z,6.73
2018-09-20T17:59:01.462Z,6.40
2018-09-20T18:01:30.398Z,6.00
2018-09-20T18:03:58.585Z,5.80
2018-09-20T18:06:26.822Z,6.20
2018-09-20T18:08:55.202Z,5.97
2018-09-20T18:11:23.520Z,5.83
2018-09-20T18:13:51.917Z,7.20
2018-09-20T18:16:20.094Z,6.03
2018-09-20T18:18:48.224Z,6.27
2018-09-20T18:21:16.686Z,6.80
2018-09-20T18:23:45.244Z,6.20
2018-09-20T18:26:14.170Z,6.27
2018-09-20T18:28:42.492Z,6.40
2018-09-20T18:31:10.843Z,5.80
2018-09-20T18:33:39.340Z,6.00
2018-09-20T18:36:07.524Z,6.53
2018-09-20T18:38:35.829Z,7.03
2018-09-20T18:41:04.437Z,6.63
2018-09-20T18:43:33.231Z,6.83
2018-09-20T18:46:01.678Z,6.90
2018-09-20T18:48:30.068Z,6.80
2018-09-20T18:50:59.345Z,7.40
2018-09-20T18:53:27.823Z,8.20
2018-09-20T18:55:56.008Z,7.40
2018-09-20T18:58:24.555Z,7.90
2018-09-20T19:00:53.293Z,7.87
2018-09-20T19:03:22.564Z,7.33
2018-09-20T19:05:50.905Z,7.43
2018-09-20T19:08:19.802Z,8.73
2018-09-20T19:10:48.192Z,8.37
2018-09-20T19:13:16.512Z,7.73
2018-09-20T19:15:44.879Z,7.67
2018-09-20T19:18:13.573Z,7.80
2018-09-20T19:20:44.377Z,7.50
2018-09-20T19:23:12.858Z,7.57
2018-09-20T19:25:41.121Z,7.47
2018-09-20T19:28:10.632Z,7.37
2018-09-20T19:30:39.067Z,7.50
2018-09-20T19:33:07.908Z,8.00
2018-09-20T19:35:36.139Z,7.83
2018-09-20T19:38:04.593Z,7.73
2018-09-20T19:40:32.960Z,8.00
2018-09-20T19:43:01.184Z,7.67
2018-09-20T19:45:29.598Z,7.93
2018-09-20T19:48:01.740Z,8.63
2018-09-20T19:50:30.380Z,7.90
2018-09-20T19:52:58.817Z,8.43
2018-09-20T19:55:27.197Z,7.90
2018-09-20T19:57:55.384Z,7.60
2018-09-20T20:00:23.807Z,7.70
2018-09-20T20:02:52.274Z,7.43
2018-09-20T20:05:20.485Z,7.40
2018-09-20T20:07:48.701Z,8.03
2018-09-20T20:10:17.117Z,7.90
2018-09-20T20:12:45.991Z,8.57
2018-09-20T20:15:14.589Z,8.13
2018-09-20T20:18:15.964Z,7.97
2018-09-20T20:20:44.717Z,8.70
2018-09-20T20:23:13.388Z,8.30
2018-09-20T20:25:41.636Z,8.50
2018-09-20T20:28:09.900Z,8.27
2018-09-20T20:30:38.274Z,7.83
2018-09-20T20:33:07.205Z,7.50
2018-09-20T20:35:35.622Z,8.03
2018-09-20T20:38:04.043Z,8.23
2018-09-20T20:40:32.286Z,7.67
2018-09-20T20:43:00.496Z,8.33
2018-09-20T20:45:28.716Z,7.83
2018-09-20T20:47:56.840Z,8.00
2018-09-20T20:50:25.234Z,6.73
2018-09-20T20:52:53.375Z,7.70
2018-09-20T20:55:21.540Z,6.70
2018-09-20T20:57:49.746Z,7.07
2018-09-20T21:00:18.343Z,6.87
2018-09-20T21:02:46.596Z,6.23
2018-09-20T21:05:15.413Z,6.43
2018-09-20T21:07:43.822Z,6.40
2018-09-20T21:10:17.054Z,7.03
2018-09-20T21:12:45.145Z,7.70
2018-09-20T21:15:13.397Z,7.97
2018-09-20T21:17:41.997Z,9.00
2018-09-20T21:20:10.450Z,8.10
2018-09-20T21:22:38.517Z,7.97
2018-09-20T21:25:06.912Z,7.90
2018-09-20T21:27:35.338Z,7.87
2018-09-20T21:30:03.819Z,8.47
2018-09-20T21:32:32.352Z,7.97
2018-09-20T21:35:00.931Z,7.77
2018-09-20T21:37:29.263Z,8.23
2018-09-20T21:39:58.687Z,8.00
2018-09-20T21:42:27.039Z,7.47
2018-09-20T21:44:55.472Z,8.13
2018-09-20T21:47:23.765Z,7.70
2018-09-20T21:49:52.255Z,7.83
2018-09-20T21:52:20.448Z,7.93
2018-09-20T21:54:48.858Z,8.10
2018-09-20T21:57:17.294Z,8.70
2018-09-20T21:59:45.681Z,8.63
2018-09-20T22:02:16.501Z,8.20
2018-09-20T22:04:44.948Z,8.43
2018-09-20T22:07:13.394Z,7.97
2018-09-20T22:09:42.008Z,7.70
2018-09-20T22:12:10.595Z,7.93
2018-09-20T22:14:38.705Z,8.70
2018-09-20T22:17:07.180Z,8.87
2018-09-20T22:19:35.532Z,8.60
2018-09-20T22:22:04.054Z,8.33
2018-09-20T22:24:32.378Z,7.80
2018-09-20T22:27:00.995Z,7.93
2018-09-20T22:29:29.563Z,8.20
2018-09-20T22:31:57.783Z,8.70
2018-09-20T22:34:26.057Z,8.80
2018-09-20T22:36:54.622Z,8.23
2018-09-20T22:39:22.924Z,8.30
2018-09-20T22:41:51.199Z,8.43
2018-09-20T22:44:19.422Z,9.00
2018-09-20T22:46:47.971Z,8.80
2018-09-20T22:49:16.116Z,8.57
2018-09-20T22:51:44.409Z,8.57
2018-09-20T22:54:12.857Z,9.40
2018-09-20T22:56:41.024Z,8.47
2018-09-20T22:59:09.456Z,9.73
2018-09-20T23:01:37.890Z,9.30
2018-09-20T23:04:06.141Z,9.20
2018-09-20T23:06:34.827Z,9.93
2018-09-20T23:09:04.598Z,9.93
2018-09-20T23:11:33.249Z,10.10
2018-09-20T23:14:01.710Z,10.03
2018-09-20T23:16:30.018Z,10.53
2018-09-20T23:18:58.462Z,10.47
2018-09-20T23:21:26.634Z,10.10
2018-09-20T23:23:54.745Z,9.53
2018-09-20T23:26:22.979Z,10.07
2018-09-20T23:28:51.161Z,9.93
2018-09-20T23:31:19.308Z,10.57
2018-09-20T23:33:48.011Z,10.20
2018-09-20T23:36:16.251Z,9.73
2018-09-20T23:38:44.343Z,9.93
2018-09-20T23:41:12.461Z,10.73
2018-09-20T23:43:41.052Z,11.20
2018-09-20T23:46:09.220Z,11.20
2018-09-20T23:48:37.323Z,10.63
2018-09-20T23:51:05.780Z,9.77
2018-09-20T23:53:33.880Z,10.80
2018-09-20T23:56:02.061Z,10.23
2018-09-20T23:58:30.525Z,10.00
